sensor_id;sensor_type;location;lat;lon;timestamp;P1;durP1;ratioP1;P2;durP2;ratioP2
68234;SDS011;55052;52.056;5.296;2023-12-07T00:00:02;12.95;;;8.50;;
68234;SDS011;55052;52.056;5.296;2023-12-07T00:02:29;14.52;;;9.52;;
68234;SDS011;55052;52.056;5.296;2023-12-07T00:04:56;15.52;;;8.80;;
68234;SDS011;55052;52.056;5.296;2023-12-07T00:07:23;16.35;;;8.90;;
68234;SDS011;55052;52.056;5.296;2023-12-07T00:09:50;13.00;;;8.27;;
68234;SDS011;55052;52.056;5.296;2023-12-07T00:12:17;12.73;;;8.57;;
68234;SDS011;55052;52.056;5.296;2023-12-07T00:14:44;13.52;;;8.60;;
68234;SDS011;55052;52.056;5.296;2023-12-07T00:17:12;13.75;;;8.57;;
68234;SDS011;55052;52.056;5.296;2023-12-07T00:19:39;14.32;;;8.82;;
68234;SDS011;55052;52.056;5.296;2023-12-07T00:22:06;14.57;;;8.20;;
68234;SDS011;55052;52.056;5.296;2023-12-07T00:24:32;15.77;;;7.97;;
68234;SDS011;55052;52.056;5.296;2023-12-07T00:26:59;15.50;;;8.77;;
68234;SDS011;55052;52.056;5.296;2023-12-07T00:29:26;13.75;;;8.00;;
68234;SDS011;55052;52.056;5.296;2023-12-07T00:31:53;13.23;;;8.85;;
68234;SDS011;55052;52.056;5.296;2023-12-07T00:34:19;16.10;;;8.77;;
68234;SDS011;55052;52.056;5.296;2023-12-07T00:36:46;18.17;;;8.60;;
68234;SDS011;55052;52.056;5.296;2023-12-07T00:39:13;13.55;;;8.48;;
68234;SDS011;55052;52.056;5.296;2023-12-07T00:41:40;15.02;;;8.70;;
68234;SDS011;55052;52.056;5.296;2023-12-07T00:44:07;15.65;;;8.90;;
68234;SDS011;55052;52.056;5.296;2023-12-07T00:46:33;14.27;;;8.85;;
68234;SDS011;55052;52.056;5.296;2023-12-07T00:49:00;14.20;;;8.95;;
68234;SDS011;55052;52.056;5.296;2023-12-07T00:51:27;13.68;;;8.32;;
68234;SDS011;55052;52.056;5.296;2023-12-07T00:53:54;15.27;;;8.70;;
68234;SDS011;55052;52.056;5.296;2023-12-07T00:56:21;13.48;;;8.45;;
68234;SDS011;55052;52.056;5.296;2023-12-07T00:58:48;12.60;;;8.48;;
68234;SDS011;55052;52.056;5.296;2023-12-07T01:01:15;16.23;;;8.52;;
68234;SDS011;55052;52.056;5.296;2023-12-07T01:03:42;12.25;;;8.63;;
68234;SDS011;55052;52.056;5.296;2023-12-07T01:06:09;12.50;;;9.07;;
68234;SDS011;55052;52.056;5.296;2023-12-07T01:08:37;15.95;;;9.48;;
68234;SDS011;55052;52.056;5.296;2023-12-07T01:11:04;12.50;;;8.82;;
68234;SDS011;55052;52.056;5.296;2023-12-07T01:13:31;16.85;;;8.90;;
68234;SDS011;55052;52.056;5.296;2023-12-07T01:15:58;16.38;;;9.65;;
68234;SDS011;55052;52.056;5.296;2023-12-07T01:18:25;14.32;;;9.32;;
68234;SDS011;55052;52.056;5.296;2023-12-07T01:20:52;13.75;;;8.93;;
68234;SDS011;55052;52.056;5.296;2023-12-07T01:23:19;14.50;;;9.20;;
68234;SDS011;55052;52.056;5.296;2023-12-07T01:25:45;14.35;;;9.38;;
68234;SDS011;55052;52.056;5.296;2023-12-07T01:28:12;15.60;;;9.93;;
68234;SDS011;55052;52.056;5.296;2023-12-07T01:30:40;14.10;;;9.10;;
68234;SDS011;55052;52.056;5.296;2023-12-07T01:33:06;14.65;;;9.10;;
68234;SDS011;55052;52.056;5.296;2023-12-07T01:35:33;12.73;;;7.75;;
68234;SDS011;55052;52.056;5.296;2023-12-07T01:38:00;12.13;;;8.02;;
68234;SDS011;55052;52.056;5.296;2023-12-07T01:40:27;12.50;;;7.93;;
68234;SDS011;55052;52.056;5.296;2023-12-07T01:42:53;12.48;;;8.15;;
68234;SDS011;55052;52.056;5.296;2023-12-07T01:45:20;12.55;;;8.00;;
68234;SDS011;55052;52.056;5.296;2023-12-07T01:47:48;13.93;;;8.27;;
68234;SDS011;55052;52.056;5.296;2023-12-07T01:50:17;14.57;;;9.02;;
68234;SDS011;55052;52.056;5.296;2023-12-07T01:52:51;11.88;;;7.72;;
68234;SDS011;55052;52.056;5.296;2023-12-07T01:55:21;16.48;;;8.40;;
68234;SDS011;55052;52.056;5.296;2023-12-07T01:57:49;12.00;;;7.78;;
68234;SDS011;55052;52.056;5.296;2023-12-07T02:00:16;15.73;;;8.30;;
68234;SDS011;55052;52.056;5.296;2023-12-07T02:02:44;16.40;;;8.10;;
68234;SDS011;55052;52.056;5.296;2023-12-07T02:05:13;12.75;;;8.27;;
68234;SDS011;55052;52.056;5.296;2023-12-07T02:07:41;14.45;;;8.55;;
68234;SDS011;55052;52.056;5.296;2023-12-07T02:10:09;15.57;;;8.80;;
68234;SDS011;55052;52.056;5.296;2023-12-07T02:12:37;13.70;;;8.50;;
68234;SDS011;55052;52.056;5.296;2023-12-07T02:15:04;11.57;;;7.82;;
68234;SDS011;55052;52.056;5.296;2023-12-07T02:17:33;12.32;;;8.10;;
68234;SDS011;55052;52.056;5.296;2023-12-07T02:22:38;11.63;;;7.55;;
68234;SDS011;55052;52.056;5.296;2023-12-07T02:25:13;12.95;;;8.25;;
68234;SDS011;55052;52.056;5.296;2023-12-07T02:27:41;13.93;;;7.65;;
68234;SDS011;55052;52.056;5.296;2023-12-07T02:30:09;12.07;;;7.65;;
68234;SDS011;55052;52.056;5.296;2023-12-07T02:32:37;15.13;;;7.90;;
68234;SDS011;55052;52.056;5.296;2023-12-07T02:35:06;13.43;;;8.27;;
68234;SDS011;55052;52.056;5.296;2023-12-07T02:37:35;11.23;;;8.13;;
68234;SDS011;55052;52.056;5.296;2023-12-07T02:40:07;11.60;;;7.80;;
68234;SDS011;55052;52.056;5.296;2023-12-07T02:42:38;13.15;;;8.10;;
68234;SDS011;55052;52.056;5.296;2023-12-07T02:45:07;13.73;;;8.07;;
68234;SDS011;55052;52.056;5.296;2023-12-07T02:47:35;15.02;;;7.90;;
68234;SDS011;55052;52.056;5.296;2023-12-07T02:50:03;11.07;;;7.28;;
68234;SDS011;55052;52.056;5.296;2023-12-07T02:52:32;11.35;;;7.22;;
68234;SDS011;55052;52.056;5.296;2023-12-07T02:54:59;13.18;;;8.18;;
68234;SDS011;55052;52.056;5.296;2023-12-07T02:57:26;13.15;;;7.63;;
68234;SDS011;55052;52.056;5.296;2023-12-07T02:59:53;12.63;;;7.45;;
68234;SDS011;55052;52.056;5.296;2023-12-07T03:02:20;12.65;;;7.80;;
68234;SDS011;55052;52.056;5.296;2023-12-07T03:04:47;13.10;;;7.88;;
68234;SDS011;55052;52.056;5.296;2023-12-07T03:07:14;12.15;;;7.57;;
68234;SDS011;55052;52.056;5.296;2023-12-07T03:09:41;15.38;;;7.88;;
68234;SDS011;55052;52.056;5.296;2023-12-07T03:12:08;13.30;;;8.30;;
68234;SDS011;55052;52.056;5.296;2023-12-07T03:14:36;14.05;;;8.20;;
68234;SDS011;55052;52.056;5.296;2023-12-07T03:17:03;15.65;;;8.20;;
68234;SDS011;55052;52.056;5.296;2023-12-07T03:19:30;11.98;;;8.05;;
68234;SDS011;55052;52.056;5.296;2023-12-07T03:21:57;11.27;;;6.70;;
68234;SDS011;55052;52.056;5.296;2023-12-07T03:24:24;13.23;;;7.75;;
68234;SDS011;55052;52.056;5.296;2023-12-07T03:26:51;12.68;;;7.65;;
68234;SDS011;55052;52.056;5.296;2023-12-07T03:29:17;11.50;;;7.55;;
68234;SDS011;55052;52.056;5.296;2023-12-07T03:31:44;12.52;;;7.68;;
68234;SDS011;55052;52.056;5.296;2023-12-07T03:34:11;13.73;;;8.38;;
68234;SDS011;55052;52.056;5.296;2023-12-07T03:36:45;11.07;;;7.60;;
68234;SDS011;55052;52.056;5.296;2023-12-07T03:39:13;11.63;;;7.38;;
68234;SDS011;55052;52.056;5.296;2023-12-07T03:41:41;14.98;;;7.63;;
68234;SDS011;55052;52.056;5.296;2023-12-07T03:44:08;14.48;;;8.63;;
68234;SDS011;55052;52.056;5.296;2023-12-07T03:46:35;13.75;;;7.90;;
68234;SDS011;55052;52.056;5.296;2023-12-07T03:49:01;13.48;;;7.85;;
68234;SDS011;55052;52.056;5.296;2023-12-07T03:51:29;10.18;;;7.25;;
68234;SDS011;55052;52.056;5.296;2023-12-07T03:53:56;13.85;;;8.00;;
68234;SDS011;55052;52.056;5.296;2023-12-07T03:56:29;14.43;;;7.93;;
68234;SDS011;55052;52.056;5.296;2023-12-07T03:58:57;13.15;;;7.80;;
68234;SDS011;55052;52.056;5.296;2023-12-07T04:01:24;16.17;;;8.55;;
68234;SDS011;55052;52.056;5.296;2023-12-07T04:03:52;13.02;;;8.30;;
68234;SDS011;55052;52.056;5.296;2023-12-07T04:06:19;12.40;;;8.07;;
68234;SDS011;55052;52.056;5.296;2023-12-07T04:08:46;13.77;;;7.78;;
68234;SDS011;55052;52.056;5.296;2023-12-07T04:11:14;11.02;;;7.70;;
68234;SDS011;55052;52.056;5.296;2023-12-07T04:13:41;14.30;;;8.23;;
68234;SDS011;55052;52.056;5.296;2023-12-07T04:16:09;12.27;;;8.05;;
68234;SDS011;55052;52.056;5.296;2023-12-07T04:18:37;14.90;;;7.90;;
68234;SDS011;55052;52.056;5.296;2023-12-07T04:21:04;14.25;;;8.48;;
68234;SDS011;55052;52.056;5.296;2023-12-07T04:23:33;18.67;;;8.05;;
68234;SDS011;55052;52.056;5.296;2023-12-07T04:26:00;17.42;;;9.38;;
68234;SDS011;55052;52.056;5.296;2023-12-07T04:28:27;14.23;;;9.02;;
68234;SDS011;55052;52.056;5.296;2023-12-07T04:30:54;16.55;;;8.23;;
68234;SDS011;55052;52.056;5.296;2023-12-07T04:33:21;15.77;;;8.43;;
68234;SDS011;55052;52.056;5.296;2023-12-07T04:35:48;17.90;;;8.52;;
68234;SDS011;55052;52.056;5.296;2023-12-07T04:38:15;12.85;;;8.38;;
68234;SDS011;55052;52.056;5.296;2023-12-07T04:40:42;19.17;;;9.05;;
68234;SDS011;55052;52.056;5.296;2023-12-07T04:43:08;22.88;;;9.85;;
68234;SDS011;55052;52.056;5.296;2023-12-07T04:45:35;17.40;;;9.18;;
68234;SDS011;55052;52.056;5.296;2023-12-07T04:48:02;21.08;;;10.50;;
68234;SDS011;55052;52.056;5.296;2023-12-07T04:50:31;16.40;;;9.15;;
68234;SDS011;55052;52.056;5.296;2023-12-07T04:52:57;16.88;;;8.98;;
68234;SDS011;55052;52.056;5.296;2023-12-07T04:55:25;16.58;;;9.25;;
68234;SDS011;55052;52.056;5.296;2023-12-07T04:57:53;17.67;;;8.85;;
68234;SDS011;55052;52.056;5.296;2023-12-07T05:00:19;19.13;;;8.73;;
68234;SDS011;55052;52.056;5.296;2023-12-07T05:02:47;17.13;;;9.75;;
68234;SDS011;55052;52.056;5.296;2023-12-07T05:05:14;17.70;;;9.73;;
68234;SDS011;55052;52.056;5.296;2023-12-07T05:07:41;18.92;;;10.20;;
68234;SDS011;55052;52.056;5.296;2023-12-07T05:10:08;16.88;;;8.85;;
68234;SDS011;55052;52.056;5.296;2023-12-07T05:12:36;17.50;;;9.65;;
68234;SDS011;55052;52.056;5.296;2023-12-07T05:15:03;19.20;;;9.55;;
68234;SDS011;55052;52.056;5.296;2023-12-07T05:17:32;17.80;;;10.13;;
68234;SDS011;55052;52.056;5.296;2023-12-07T05:19:59;19.17;;;10.15;;
68234;SDS011;55052;52.056;5.296;2023-12-07T05:22:26;17.58;;;9.73;;
68234;SDS011;55052;52.056;5.296;2023-12-07T05:24:54;37.08;;;10.82;;
68234;SDS011;55052;52.056;5.296;2023-12-07T05:27:20;16.50;;;10.60;;
68234;SDS011;55052;52.056;5.296;2023-12-07T05:29:47;46.35;;;10.63;;
68234;SDS011;55052;52.056;5.296;2023-12-07T05:32:14;42.45;;;10.88;;
68234;SDS011;55052;52.056;5.296;2023-12-07T05:34:41;18.90;;;10.93;;
68234;SDS011;55052;52.056;5.296;2023-12-07T05:37:08;68.70;;;12.32;;
68234;SDS011;55052;52.056;5.296;2023-12-07T05:39:35;15.65;;;9.95;;
68234;SDS011;55052;52.056;5.296;2023-12-07T05:42:02;74.57;;;11.95;;
68234;SDS011;55052;52.056;5.296;2023-12-07T05:44:30;16.38;;;10.95;;
68234;SDS011;55052;52.056;5.296;2023-12-07T05:46:57;35.35;;;11.88;;
68234;SDS011;55052;52.056;5.296;2023-12-07T05:49:24;15.55;;;10.43;;
68234;SDS011;55052;52.056;5.296;2023-12-07T05:51:51;35.53;;;11.27;;
68234;SDS011;55052;52.056;5.296;2023-12-07T05:54:19;78.13;;;12.40;;
68234;SDS011;55052;52.056;5.296;2023-12-07T05:56:49;31.17;;;10.50;;
68234;SDS011;55052;52.056;5.296;2023-12-07T05:59:16;48.97;;;11.63;;
68234;SDS011;55052;52.056;5.296;2023-12-07T06:01:43;22.48;;;10.88;;
68234;SDS011;55052;52.056;5.296;2023-12-07T06:04:10;35.47;;;12.52;;
68234;SDS011;55052;52.056;5.296;2023-12-07T06:06:39;24.67;;;11.75;;
68234;SDS011;55052;52.056;5.296;2023-12-07T06:09:06;32.38;;;10.82;;
68234;SDS011;55052;52.056;5.296;2023-12-07T06:11:34;27.80;;;11.52;;
68234;SDS011;55052;52.056;5.296;2023-12-07T06:14:01;23.55;;;12.50;;
68234;SDS011;55052;52.056;5.296;2023-12-07T06:16:28;22.17;;;11.30;;
68234;SDS011;55052;52.056;5.296;2023-12-07T06:18:54;18.45;;;11.82;;
68234;SDS011;55052;52.056;5.296;2023-12-07T06:21:22;40.10;;;11.90;;
68234;SDS011;55052;52.056;5.296;2023-12-07T06:23:48;100.63;;;13.52;;
68234;SDS011;55052;52.056;5.296;2023-12-07T06:26:16;51.90;;;12.30;;
68234;SDS011;55052;52.056;5.296;2023-12-07T06:28:42;72.65;;;13.30;;
68234;SDS011;55052;52.056;5.296;2023-12-07T06:31:11;31.15;;;12.75;;
68234;SDS011;55052;52.056;5.296;2023-12-07T06:33:38;22.52;;;12.25;;
68234;SDS011;55052;52.056;5.296;2023-12-07T06:36:06;23.02;;;11.68;;
68234;SDS011;55052;52.056;5.296;2023-12-07T06:38:33;25.17;;;12.60;;
68234;SDS011;55052;52.056;5.296;2023-12-07T06:41:00;23.00;;;12.43;;
68234;SDS011;55052;52.056;5.296;2023-12-07T06:43:27;53.28;;;14.20;;
68234;SDS011;55052;52.056;5.296;2023-12-07T06:45:54;31.25;;;11.85;;
68234;SDS011;55052;52.056;5.296;2023-12-07T06:48:20;23.10;;;11.77;;
68234;SDS011;55052;52.056;5.296;2023-12-07T06:50:47;54.03;;;12.85;;
68234;SDS011;55052;52.056;5.296;2023-12-07T06:53:15;64.68;;;13.73;;
68234;SDS011;55052;52.056;5.296;2023-12-07T06:55:42;17.85;;;10.77;;
68234;SDS011;55052;52.056;5.296;2023-12-07T06:58:11;20.77;;;11.07;;
68234;SDS011;55052;52.056;5.296;2023-12-07T07:00:38;66.78;;;12.73;;
68234;SDS011;55052;52.056;5.296;2023-12-07T07:03:05;28.63;;;12.27;;
68234;SDS011;55052;52.056;5.296;2023-12-07T07:05:32;18.42;;;11.27;;
68234;SDS011;55052;52.056;5.296;2023-12-07T07:07:59;43.63;;;11.88;;
68234;SDS011;55052;52.056;5.296;2023-12-07T07:10:26;21.92;;;11.57;;
68234;SDS011;55052;52.056;5.296;2023-12-07T07:12:53;17.90;;;11.77;;
68234;SDS011;55052;52.056;5.296;2023-12-07T07:15:20;19.92;;;11.65;;
68234;SDS011;55052;52.056;5.296;2023-12-07T07:17:47;20.88;;;11.10;;
68234;SDS011;55052;52.056;5.296;2023-12-07T07:20:14;20.08;;;12.15;;
68234;SDS011;55052;52.056;5.296;2023-12-07T07:22:40;20.92;;;11.80;;
68234;SDS011;55052;52.056;5.296;2023-12-07T07:25:08;18.75;;;11.18;;
68234;SDS011;55052;52.056;5.296;2023-12-07T07:27:35;26.92;;;12.18;;
68234;SDS011;55052;52.056;5.296;2023-12-07T07:30:02;35.05;;;12.30;;
68234;SDS011;55052;52.056;5.296;2023-12-07T07:32:31;34.28;;;13.27;;
68234;SDS011;55052;52.056;5.296;2023-12-07T07:34:58;50.95;;;14.32;;
68234;SDS011;55052;52.056;5.296;2023-12-07T07:37:25;41.97;;;13.38;;
68234;SDS011;55052;52.056;5.296;2023-12-07T07:39:53;25.10;;;13.45;;
68234;SDS011;55052;52.056;5.296;2023-12-07T07:42:20;43.47;;;13.18;;
68234;SDS011;55052;52.056;5.296;2023-12-07T07:44:47;28.98;;;13.82;;
68234;SDS011;55052;52.056;5.296;2023-12-07T07:47:13;20.35;;;12.00;;
68234;SDS011;55052;52.056;5.296;2023-12-07T07:49:40;26.85;;;12.35;;
68234;SDS011;55052;52.056;5.296;2023-12-07T07:52:07;21.27;;;12.65;;
68234;SDS011;55052;52.056;5.296;2023-12-07T07:54:34;22.65;;;11.38;;
68234;SDS011;55052;52.056;5.296;2023-12-07T07:57:03;32.80;;;11.25;;
68234;SDS011;55052;52.056;5.296;2023-12-07T07:59:30;22.90;;;11.77;;
68234;SDS011;55052;52.056;5.296;2023-12-07T08:01:57;23.52;;;11.02;;
68234;SDS011;55052;52.056;5.296;2023-12-07T08:04:24;20.58;;;12.32;;
68234;SDS011;55052;52.056;5.296;2023-12-07T08:06:51;22.15;;;11.40;;
68234;SDS011;55052;52.056;5.296;2023-12-07T08:09:18;25.83;;;12.52;;
68234;SDS011;55052;52.056;5.296;2023-12-07T08:11:45;26.92;;;12.38;;
68234;SDS011;55052;52.056;5.296;2023-12-07T08:14:12;19.95;;;11.60;;
68234;SDS011;55052;52.056;5.296;2023-12-07T08:16:42;24.45;;;12.50;;
68234;SDS011;55052;52.056;5.296;2023-12-07T08:19:13;22.92;;;12.60;;
68234;SDS011;55052;52.056;5.296;2023-12-07T08:21:40;21.60;;;11.93;;
68234;SDS011;55052;52.056;5.296;2023-12-07T08:24:06;31.58;;;11.38;;
68234;SDS011;55052;52.056;5.296;2023-12-07T08:26:33;20.45;;;11.75;;
68234;SDS011;55052;52.056;5.296;2023-12-07T08:29:01;38.85;;;11.55;;
68234;SDS011;55052;52.056;5.296;2023-12-07T08:31:28;36.40;;;11.38;;
68234;SDS011;55052;52.056;5.296;2023-12-07T08:33:55;22.23;;;10.05;;
68234;SDS011;55052;52.056;5.296;2023-12-07T08:36:22;18.00;;;10.43;;
68234;SDS011;55052;52.056;5.296;2023-12-07T08:38:48;19.10;;;9.35;;
68234;SDS011;55052;52.056;5.296;2023-12-07T08:41:15;31.38;;;9.98;;
68234;SDS011;55052;52.056;5.296;2023-12-07T08:43:42;34.35;;;9.35;;
68234;SDS011;55052;52.056;5.296;2023-12-07T08:46:09;28.95;;;9.57;;
68234;SDS011;55052;52.056;5.296;2023-12-07T08:48:36;17.08;;;9.68;;
68234;SDS011;55052;52.056;5.296;2023-12-07T08:51:08;17.15;;;9.68;;
68234;SDS011;55052;52.056;5.296;2023-12-07T08:53:35;22.73;;;9.82;;
68234;SDS011;55052;52.056;5.296;2023-12-07T08:56:04;19.30;;;10.18;;
68234;SDS011;55052;52.056;5.296;2023-12-07T08:58:31;18.63;;;9.38;;
68234;SDS011;55052;52.056;5.296;2023-12-07T09:00:58;46.75;;;10.43;;
68234;SDS011;55052;52.056;5.296;2023-12-07T09:03:25;15.35;;;8.80;;
68234;SDS011;55052;52.056;5.296;2023-12-07T09:05:58;37.10;;;9.88;;
68234;SDS011;55052;52.056;5.296;2023-12-07T09:08:25;21.70;;;8.75;;
68234;SDS011;55052;52.056;5.296;2023-12-07T09:10:52;44.42;;;9.05;;
68234;SDS011;55052;52.056;5.296;2023-12-07T09:13:19;21.30;;;9.13;;
68234;SDS011;55052;52.056;5.296;2023-12-07T09:15:46;20.13;;;8.63;;
68234;SDS011;55052;52.056;5.296;2023-12-07T09:18:13;18.02;;;8.45;;
68234;SDS011;55052;52.056;5.296;2023-12-07T09:20:40;14.43;;;7.65;;
68234;SDS011;55052;52.056;5.296;2023-12-07T09:23:12;17.83;;;7.90;;
68234;SDS011;55052;52.056;5.296;2023-12-07T09:25:39;35.47;;;9.55;;
68234;SDS011;55052;52.056;5.296;2023-12-07T09:28:07;14.35;;;8.05;;
68234;SDS011;55052;52.056;5.296;2023-12-07T09:30:34;16.02;;;8.18;;
68234;SDS011;55052;52.056;5.296;2023-12-07T09:33:01;14.63;;;7.80;;
68234;SDS011;55052;52.056;5.296;2023-12-07T09:35:32;20.70;;;7.97;;
68234;SDS011;55052;52.056;5.296;2023-12-07T09:38:00;22.77;;;8.10;;
68234;SDS011;55052;52.056;5.296;2023-12-07T09:40:29;27.05;;;7.45;;
68234;SDS011;55052;52.056;5.296;2023-12-07T09:42:57;16.67;;;7.70;;
68234;SDS011;55052;52.056;5.296;2023-12-07T09:45:24;13.70;;;7.63;;
68234;SDS011;55052;52.056;5.296;2023-12-07T09:47:54;23.77;;;7.82;;
68234;SDS011;55052;52.056;5.296;2023-12-07T09:50:22;16.05;;;7.63;;
68234;SDS011;55052;52.056;5.296;2023-12-07T09:52:50;32.47;;;8.10;;
68234;SDS011;55052;52.056;5.296;2023-12-07T09:55:32;14.35;;;7.40;;
68234;SDS011;55052;52.056;5.296;2023-12-07T09:58:00;24.27;;;7.28;;
68234;SDS011;55052;52.056;5.296;2023-12-07T10:00:29;12.02;;;6.97;;
68234;SDS011;55052;52.056;5.296;2023-12-07T10:02:56;13.40;;;7.20;;
68234;SDS011;55052;52.056;5.296;2023-12-07T10:05:23;19.98;;;7.75;;
68234;SDS011;55052;52.056;5.296;2023-12-07T10:07:50;12.43;;;6.80;;
68234;SDS011;55052;52.056;5.296;2023-12-07T10:10:18;16.52;;;7.90;;
68234;SDS011;55052;52.056;5.296;2023-12-07T10:12:46;17.73;;;7.10;;
68234;SDS011;55052;52.056;5.296;2023-12-07T10:15:17;15.32;;;8.15;;
68234;SDS011;55052;52.056;5.296;2023-12-07T10:20:20;15.32;;;8.50;;
68234;SDS011;55052;52.056;5.296;2023-12-07T10:25:31;14.07;;;6.85;;
68234;SDS011;55052;52.056;5.296;2023-12-07T10:27:58;13.02;;;7.38;;
68234;SDS011;55052;52.056;5.296;2023-12-07T10:30:27;13.32;;;7.28;;
68234;SDS011;55052;52.056;5.296;2023-12-07T10:32:54;16.85;;;7.43;;
68234;SDS011;55052;52.056;5.296;2023-12-07T10:35:21;16.75;;;8.05;;
68234;SDS011;55052;52.056;5.296;2023-12-07T10:37:48;16.20;;;7.95;;
68234;SDS011;55052;52.056;5.296;2023-12-07T10:40:15;15.77;;;7.65;;
68234;SDS011;55052;52.056;5.296;2023-12-07T10:42:42;17.67;;;7.43;;
68234;SDS011;55052;52.056;5.296;2023-12-07T10:45:13;17.58;;;6.95;;
68234;SDS011;55052;52.056;5.296;2023-12-07T10:47:43;18.77;;;6.93;;
68234;SDS011;55052;52.056;5.296;2023-12-07T10:50:11;14.38;;;7.25;;
68234;SDS011;55052;52.056;5.296;2023-12-07T10:52:48;16.80;;;8.10;;
68234;SDS011;55052;52.056;5.296;2023-12-07T10:55:21;20.73;;;8.77;;
68234;SDS011;55052;52.056;5.296;2023-12-07T10:57:52;18.88;;;8.75;;
68234;SDS011;55052;52.056;5.296;2023-12-07T11:00:21;22.10;;;9.05;;
68234;SDS011;55052;52.056;5.296;2023-12-07T11:03:09;21.60;;;9.30;;
68234;SDS011;55052;52.056;5.296;2023-12-07T11:05:37;21.20;;;9.45;;
68234;SDS011;55052;52.056;5.296;2023-12-07T11:08:06;23.42;;;9.60;;
68234;SDS011;55052;52.056;5.296;2023-12-07T11:10:50;24.27;;;9.48;;
68234;SDS011;55052;52.056;5.296;2023-12-07T11:13:32;25.42;;;9.20;;
68234;SDS011;55052;52.056;5.296;2023-12-07T11:16:02;17.73;;;8.45;;
68234;SDS011;55052;52.056;5.296;2023-12-07T11:18:30;20.90;;;9.63;;
68234;SDS011;55052;52.056;5.296;2023-12-07T11:20:57;18.90;;;9.20;;
68234;SDS011;55052;52.056;5.296;2023-12-07T11:23:26;19.50;;;9.80;;
68234;SDS011;55052;52.056;5.296;2023-12-07T11:25:54;19.02;;;8.63;;
68234;SDS011;55052;52.056;5.296;2023-12-07T11:28:35;17.23;;;9.52;;
68234;SDS011;55052;52.056;5.296;2023-12-07T11:31:03;18.65;;;8.65;;
68234;SDS011;55052;52.056;5.296;2023-12-07T11:33:30;47.28;;;9.43;;
68234;SDS011;55052;52.056;5.296;2023-12-07T11:39:14;19.23;;;9.43;;
68234;SDS011;55052;52.056;5.296;2023-12-07T11:41:28;25.13;;;8.85;;
68234;SDS011;55052;52.056;5.296;2023-12-07T11:43:59;24.33;;;9.13;;
68234;SDS011;55052;52.056;5.296;2023-12-07T11:46:26;18.52;;;8.60;;
68234;SDS011;55052;52.056;5.296;2023-12-07T11:48:52;18.30;;;9.65;;
68234;SDS011;55052;52.056;5.296;2023-12-07T11:51:21;23.90;;;10.13;;
68234;SDS011;55052;52.056;5.296;2023-12-07T11:53:48;29.27;;;10.05;;
68234;SDS011;55052;52.056;5.296;2023-12-07T11:56:16;25.02;;;11.38;;
68234;SDS011;55052;52.056;5.296;2023-12-07T11:58:47;26.65;;;11.52;;
68234;SDS011;55052;52.056;5.296;2023-12-07T12:01:15;20.75;;;9.80;;
68234;SDS011;55052;52.056;5.296;2023-12-07T12:03:43;22.83;;;11.05;;
68234;SDS011;55052;52.056;5.296;2023-12-07T12:06:10;25.92;;;10.75;;
68234;SDS011;55052;52.056;5.296;2023-12-07T12:08:40;26.42;;;11.70;;
68234;SDS011;55052;52.056;5.296;2023-12-07T12:11:07;23.52;;;11.45;;
68234;SDS011;55052;52.056;5.296;2023-12-07T12:13:35;24.08;;;11.05;;
68234;SDS011;55052;52.056;5.296;2023-12-07T12:16:03;25.48;;;12.35;;
68234;SDS011;55052;52.056;5.296;2023-12-07T12:18:32;29.00;;;11.87;;
68234;SDS011;55052;52.056;5.296;2023-12-07T12:21:00;27.98;;;11.23;;
68234;SDS011;55052;52.056;5.296;2023-12-07T12:23:28;23.73;;;11.68;;
68234;SDS011;55052;52.056;5.296;2023-12-07T12:25:55;26.52;;;11.82;;
68234;SDS011;55052;52.056;5.296;2023-12-07T12:28:23;24.63;;;11.02;;
68234;SDS011;55052;52.056;5.296;2023-12-07T12:30:50;28.65;;;12.10;;
68234;SDS011;55052;52.056;5.296;2023-12-07T12:33:18;27.80;;;12.68;;
68234;SDS011;55052;52.056;5.296;2023-12-07T12:35:45;24.73;;;11.88;;
68234;SDS011;55052;52.056;5.296;2023-12-07T12:38:12;29.10;;;13.60;;
68234;SDS011;55052;52.056;5.296;2023-12-07T12:40:53;26.10;;;11.57;;
68234;SDS011;55052;52.056;5.296;2023-12-07T12:43:20;25.35;;;11.98;;
68234;SDS011;55052;52.056;5.296;2023-12-07T12:45:49;27.20;;;12.43;;
68234;SDS011;55052;52.056;5.296;2023-12-07T12:48:31;25.77;;;11.98;;
68234;SDS011;55052;52.056;5.296;2023-12-07T12:51:06;24.10;;;11.82;;
68234;SDS011;55052;52.056;5.296;2023-12-07T12:53:46;27.73;;;13.00;;
68234;SDS011;55052;52.056;5.296;2023-12-07T12:56:17;28.83;;;12.93;;
68234;SDS011;55052;52.056;5.296;2023-12-07T12:58:45;28.17;;;13.48;;
68234;SDS011;55052;52.056;5.296;2023-12-07T13:01:12;28.60;;;13.50;;
68234;SDS011;55052;52.056;5.296;2023-12-07T13:03:39;25.55;;;12.10;;
68234;SDS011;55052;52.056;5.296;2023-12-07T13:06:06;27.55;;;13.88;;
68234;SDS011;55052;52.056;5.296;2023-12-07T13:08:33;24.67;;;12.57;;
68234;SDS011;55052;52.056;5.296;2023-12-07T13:11:00;23.85;;;11.98;;
68234;SDS011;55052;52.056;5.296;2023-12-07T13:13:27;24.05;;;12.68;;
68234;SDS011;55052;52.056;5.296;2023-12-07T13:15:54;24.60;;;12.75;;
68234;SDS011;55052;52.056;5.296;2023-12-07T13:18:21;23.77;;;12.07;;
68234;SDS011;55052;52.056;5.296;2023-12-07T13:20:48;24.08;;;12.50;;
68234;SDS011;55052;52.056;5.296;2023-12-07T13:23:21;24.80;;;13.00;;
68234;SDS011;55052;52.056;5.296;2023-12-07T13:25:48;24.75;;;13.38;;
68234;SDS011;55052;52.056;5.296;2023-12-07T13:28:15;25.63;;;13.05;;
68234;SDS011;55052;52.056;5.296;2023-12-07T13:30:42;21.50;;;11.63;;
68234;SDS011;55052;52.056;5.296;2023-12-07T13:33:10;22.38;;;12.68;;
68234;SDS011;55052;52.056;5.296;2023-12-07T13:35:50;26.48;;;13.38;;
68234;SDS011;55052;52.056;5.296;2023-12-07T13:38:18;25.25;;;11.93;;
68234;SDS011;55052;52.056;5.296;2023-12-07T13:40:47;24.63;;;12.82;;
68234;SDS011;55052;52.056;5.296;2023-12-07T13:43:15;26.48;;;13.85;;
68234;SDS011;55052;52.056;5.296;2023-12-07T13:45:44;27.38;;;14.23;;
68234;SDS011;55052;52.056;5.296;2023-12-07T13:48:11;24.55;;;13.35;;
68234;SDS011;55052;52.056;5.296;2023-12-07T13:50:40;25.98;;;13.90;;
68234;SDS011;55052;52.056;5.296;2023-12-07T13:53:07;27.33;;;13.80;;
68234;SDS011;55052;52.056;5.296;2023-12-07T13:55:39;29.27;;;15.00;;
68234;SDS011;55052;52.056;5.296;2023-12-07T13:58:06;27.50;;;14.15;;
68234;SDS011;55052;52.056;5.296;2023-12-07T14:00:33;26.52;;;14.77;;
68234;SDS011;55052;52.056;5.296;2023-12-07T14:03:00;25.58;;;13.35;;
68234;SDS011;55052;52.056;5.296;2023-12-07T14:05:27;27.77;;;15.18;;
68234;SDS011;55052;52.056;5.296;2023-12-07T14:07:54;28.67;;;15.88;;
68234;SDS011;55052;52.056;5.296;2023-12-07T14:10:22;27.52;;;15.00;;
68234;SDS011;55052;52.056;5.296;2023-12-07T14:12:49;27.92;;;14.45;;
68234;SDS011;55052;52.056;5.296;2023-12-07T14:15:15;26.70;;;14.20;;
68234;SDS011;55052;52.056;5.296;2023-12-07T14:17:50;28.40;;;14.80;;
68234;SDS011;55052;52.056;5.296;2023-12-07T14:20:19;28.08;;;15.63;;
68234;SDS011;55052;52.056;5.296;2023-12-07T14:23:10;30.33;;;14.68;;
68234;SDS011;55052;52.056;5.296;2023-12-07T14:25:37;28.92;;;15.70;;
68234;SDS011;55052;52.056;5.296;2023-12-07T14:28:06;29.77;;;14.95;;
68234;SDS011;55052;52.056;5.296;2023-12-07T14:30:33;28.85;;;16.30;;
68234;SDS011;55052;52.056;5.296;2023-12-07T14:33:01;30.13;;;16.50;;
68234;SDS011;55052;52.056;5.296;2023-12-07T14:35:28;32.97;;;16.38;;
68234;SDS011;55052;52.056;5.296;2023-12-07T14:37:55;33.42;;;17.23;;
68234;SDS011;55052;52.056;5.296;2023-12-07T14:40:22;29.83;;;16.13;;
68234;SDS011;55052;52.056;5.296;2023-12-07T14:42:49;31.48;;;16.70;;